Time;durP1;ratioP1;P1;durP2;ratioP2;P2;SDS_P1;SDS_P2;PMS_P1;PMS_P2;Temp;Humidity;BMP_temperature;BMP_pressure;BME280_temperature;BME280_humidity;BME280_pressure;Samples;Min_cycle;Max_cycle;Signal;HPM_P1;HPM_P2
2023/07/28 00:01:25;;;;;;;3.53;1.65;;;;;;;27.10;50.03;100785.28;5059462;28;20052;-57
2023/07/28 00:03:53;;;;;;;3.58;1.67;;;;;;;27.11;50.17;100786.97;5068840;28;20492;-57
2023/07/28 00:06:20;;;;;;;2.42;1.50;;;;;;;27.11;50.05;100786.97;5060794;28;20055;-57
2023/07/28 00:08:48;;;;;;;2.25;1.10;;;;;;;27.11;50.14;100795.13;5062851;28;20041;-57
2023/07/28 00:11:15;;;;;;;2.88;1.27;;;;;;;27.13;50.03;100781.34;5068160;28;20045;-57
2023/07/28 00:13:43;;;;;;;2.35;1.50;;;;;;;27.15;50.07;100783.91;5058879;28;20041;-57
2023/07/28 00:16:10;;;;;;;4.70;1.80;;;;;;;27.14;49.98;100780.31;5069755;28;20037;-57
2023/07/28 00:18:38;;;;;;;3.10;1.52;;;;;;;27.15;50.23;100773.03;5068530;28;20049;-60
2023/07/28 00:21:06;;;;;;;2.63;1.35;;;;;;;27.16;50.21;100772.00;5064855;28;20049;-60
2023/07/28 00:23:33;;;;;;;3.58;1.65;;;;;;;27.17;49.98;100770.94;5071998;28;20048;-60
2023/07/28 00:26:00;;;;;;;3.50;1.42;;;;;;;27.16;49.87;100774.69;5064336;28;20044;-60
2023/07/28 00:28:28;;;;;;;2.40;1.50;;;;;;;27.17;49.82;100776.38;5066165;28;20405;-57
2023/07/28 00:30:55;;;;;;;3.55;1.40;;;;;;;27.17;49.82;100777.22;5070828;28;20044;-57
2023/07/28 00:33:23;;;;;;;3.53;1.45;;;;;;;27.17;49.79;100777.22;5061669;28;20041;-57
2023/07/28 00:35:51;;;;;;;2.58;1.50;;;;;;;27.18;49.90;100783.50;5069834;28;20053;-57
2023/07/28 00:38:19;;;;;;;2.20;1.33;;;;;;;27.18;49.63;100778.06;5067781;28;20040;-57
2023/07/28 00:40:46;;;;;;;3.08;1.75;;;;;;;27.18;49.74;100778.06;5064366;28;20052;-56
2023/07/28 00:43:13;;;;;;;2.47;1.30;;;;;;;27.19;49.83;100777.06;5068310;28;20072;-57
2023/07/28 00:45:41;;;;;;;3.00;1.55;;;;;;;27.18;49.88;100772.63;5066963;28;20053;-57
2023/07/28 00:48:13;;;;;;;3.58;1.38;;;;;;;27.19;49.61;100772.47;5068108;28;20052;-60
2023/07/28 00:50:48;;;;;;;3.33;1.77;;;;;;;27.20;49.49;100782.31;5063748;28;20056;-60
2023/07/28 00:53:16;;;;;;;3.83;1.70;;;;;;;27.20;49.70;100778.75;5058266;28;20052;-60
2023/07/28 00:55:43;;;;;;;2.50;1.50;;;;;;;27.20;49.67;100759.72;5065987;28;20052;-60
2023/07/28 00:58:10;;;;;;;2.63;1.40;;;;;;;27.20;49.35;100748.84;5067664;28;20056;-60
2023/07/28 01:00:38;;;;;;;2.45;1.30;;;;;;;27.20;49.18;100757.84;5062492;28;20420;-60
2023/07/28 01:03:06;;;;;;;2.55;1.35;;;;;;;27.21;49.43;100745.09;5073488;28;20048;-60
2023/07/28 01:05:55;;;;;;;2.63;1.30;;;;;;;27.21;49.48;100740.50;5065619;28;20527;-60
2023/07/28 01:08:38;;;;;;;2.70;1.40;;;;;;;27.21;49.23;100745.09;5062012;28;20044;-60
2023/07/28 01:11:06;;;;;;;2.40;1.52;;;;;;;27.21;49.13;100745.94;5059984;28;20053;-60
2023/07/28 01:13:34;;;;;;;2.35;1.38;;;;;;;27.21;48.89;100745.94;5065065;28;20044;-60
2023/07/28 01:16:02;;;;;;;3.40;1.40;;;;;;;27.22;49.04;100744.88;5066933;28;20400;-60
2023/07/28 01:18:29;;;;;;;2.53;1.33;;;;;;;27.22;49.16;100736.75;5059967;28;20049;-57
2023/07/28 01:21:00;;;;;;;2.30;1.50;;;;;;;27.22;48.74;100735.91;5070147;28;20055;-57
2023/07/28 01:23:37;;;;;;;3.78;1.52;;;;;;;27.22;48.62;100736.75;5067156;28;20053;-56
2023/07/28 01:26:12;;;;;;;4.03;2.10;;;;;;;27.23;48.94;100748.47;5060842;28;20049;-57
2023/07/28 01:28:41;;;;;;;2.72;1.67;;;;;;;27.23;48.98;100732.19;5071020;28;20048;-59
2023/07/28 01:31:09;;;;;;;2.92;1.58;;;;;;;27.23;48.62;100726.75;5065065;28;20060;-60
2023/07/28 01:33:36;;;;;;;3.08;1.48;;;;;;;27.23;48.59;100715.88;5066076;28;20080;-60
2023/07/28 01:36:04;;;;;;;3.13;1.50;;;;;;;27.24;48.57;100729.25;5065330;28;20053;-59
2023/07/28 01:38:31;;;;;;;3.50;1.70;;;;;;;27.23;48.51;100721.31;5061617;28;20063;-57
2023/07/28 01:40:59;;;;;;;3.50;1.45;;;;;;;27.24;48.65;100729.25;5066526;28;20045;-57
2023/07/28 01:43:26;;;;;;;2.45;1.40;;;;;;;27.24;48.50;100731.97;5068613;28;20040;-57
2023/07/28 01:45:54;;;;;;;2.60;1.10;;;;;;;27.25;48.49;100733.66;5070137;28;20127;-57
2023/07/28 01:48:21;;;;;;;3.97;1.67;;;;;;;27.26;48.35;100742.66;5071123;28;20465;-57
2023/07/28 01:50:49;;;;;;;2.45;1.20;;;;;;;27.26;48.67;100748.09;5064913;28;20052;-57
2023/07/28 01:53:16;;;;;;;2.83;1.38;;;;;;;27.25;48.31;100744.53;5064333;28;20044;-57
2023/07/28 01:55:44;;;;;;;2.80;1.45;;;;;;;27.25;48.60;100741.81;5065353;28;20056;-57
2023/07/28 01:58:12;;;;;;;3.60;1.90;;;;;;;27.26;48.30;100742.66;5067633;28;20041;-57
2023/07/28 02:00:39;;;;;;;2.45;1.30;;;;;;;27.26;48.46;100737.22;5063886;28;20063;-57
2023/07/28 02:03:07;;;;;;;2.92;1.60;;;;;;;27.26;48.07;100743.50;5065953;28;20048;-57
2023/07/28 02:05:34;;;;;;;2.55;1.50;;;;;;;27.26;48.18;100738.06;5070138;28;20057;-57
2023/07/28 02:08:02;;;;;;;2.25;1.55;;;;;;;27.26;48.17;100742.66;5061795;28;20056;-57
2023/07/28 02:10:30;;;;;;;2.92;1.40;;;;;;;27.27;48.29;100744.34;5061869;28;20053;-57
2023/07/28 02:12:57;;;;;;;3.05;1.67;;;;;;;27.27;48.04;100744.34;5059822;28;20523;-57
2023/07/28 02:15:25;;;;;;;2.42;1.30;;;;;;;27.28;48.10;100743.31;5064418;28;20060;-57
2023/07/28 02:17:52;;;;;;;4.22;1.55;;;;;;;27.27;47.90;100741.63;5058351;28;20053;-57
2023/07/28 02:20:19;;;;;;;3.22;1.42;;;;;;;27.28;47.74;100740.59;5064412;28;20051;-57
2023/07/28 02:22:47;;;;;;;3.65;1.60;;;;;;;27.28;47.67;100740.59;5063940;28;20057;-57
2023/07/28 02:25:14;;;;;;;3.33;1.45;;;;;;;27.27;47.87;100744.34;5064774;28;20045;-57
2023/07/28 02:27:42;;;;;;;2.95;1.40;;;;;;;27.27;47.67;100742.47;5056351;28;20052;-59
2023/07/28 02:30:10;;;;;;;3.00;1.35;;;;;;;27.27;47.55;100731.63;5063286;28;20059;-60
2023/07/28 02:32:37;;;;;;;3.70;1.63;;;;;;;27.28;47.42;100735.16;5068292;28;20041;-59
2023/07/28 02:35:05;;;;;;;3.03;1.40;;;;;;;27.28;47.56;100737.88;5059629;28;20539;-59
2023/07/28 02:37:33;;;;;;;4.25;1.90;;;;;;;27.28;47.64;100736.00;5057838;28;20044;-59
2023/07/28 02:40:00;;;;;;;2.90;1.55;;;;;;;27.28;47.34;100735.16;5063178;28;20416;-60
2023/07/28 02:42:30;;;;;;;4.00;1.90;;;;;;;27.28;47.35;100738.72;5063037;28;20051;-59
2023/07/28 02:44:58;;;;;;;3.35;1.70;;;;;;;27.28;47.04;100741.44;5071869;28;20539;-59
2023/07/28 02:47:25;;;;;;;2.95;1.60;;;;;;;27.28;47.44;100751.47;5068718;28;20444;-57
2023/07/28 02:49:52;;;;;;;3.75;1.85;;;;;;;27.28;47.26;100740.59;5063084;28;20068;-56
2023/07/28 02:52:20;;;;;;;4.05;1.67;;;;;;;27.27;47.08;100737.03;5058056;28;20515;-57
2023/07/28 02:54:47;;;;;;;3.13;1.70;;;;;;;27.28;46.97;100744.16;5063792;28;20045;-57
2023/07/28 02:57:15;;;;;;;2.95;1.85;;;;;;;27.29;47.01;100742.28;5065036;28;20412;-59
2023/07/28 02:59:44;;;;;;;2.33;1.50;;;;;;;27.27;47.24;100741.63;5056274;28;20424;-60
2023/07/28 03:02:12;;;;;;;3.00;1.45;;;;;;;27.28;46.76;100743.31;5067119;28;20052;-59
2023/07/28 03:04:39;;;;;;;2.60;1.42;;;;;;;27.28;46.91;100746.03;5059813;28;20048;-59
2023/07/28 03:07:17;;;;;;;5.28;2.03;;;;;;;27.28;46.53;100746.03;5069349;28;20053;-57
2023/07/28 03:09:50;;;;;;;2.70;1.13;;;;;;;27.27;46.33;100738.94;5065281;28;20531;-57
2023/07/28 03:12:17;;;;;;;4.90;1.73;;;;;;;27.28;46.25;100729.72;5061300;28;20049;-57
2023/07/28 03:14:45;;;;;;;4.10;1.58;;;;;;;27.28;46.41;100735.16;5071202;28;20505;-57
2023/07/28 03:17:12;;;;;;;2.35;1.30;;;;;;;27.27;46.07;100731.63;5066613;28;20049;-59
2023/07/28 03:19:39;;;;;;;3.90;1.98;;;;;;;27.28;46.15;100737.88;5065409;28;20055;-60
2023/07/28 03:22:07;;;;;;;3.10;1.70;;;;;;;27.27;46.18;100731.63;5065359;28;20049;-60
2023/07/28 03:24:34;;;;;;;2.88;1.60;;;;;;;27.28;46.33;100740.59;5068182;28;20040;-62
2023/07/28 03:27:01;;;;;;;4.72;2.20;;;;;;;27.25;46.36;100747.25;5060606;28;20052;-62
2023/07/28 03:29:29;;;;;;;2.70;1.42;;;;;;;27.22;46.03;100753.03;5065714;28;20052;-62
2023/07/28 03:31:56;;;;;;;3.08;1.58;;;;;;;27.21;46.07;100750.53;5059949;28;20504;-63
2023/07/28 03:34:24;;;;;;;2.25;1.55;;;;;;;27.19;45.99;100741.72;5068932;28;20071;-63
2023/07/28 03:36:52;;;;;;;4.15;1.58;;;;;;;27.15;45.64;100741.25;5061078;28;20060;-62
2023/07/28 03:39:19;;;;;;;3.53;1.70;;;;;;;27.15;45.75;100759.44;5066094;28;20049;-63
2023/07/28 03:41:48;;;;;;;3.85;1.63;;;;;;;27.14;45.81;100761.28;5058529;28;20060;-62
2023/07/28 03:44:16;;;;;;;3.22;1.55;;;;;;;27.13;45.86;100758.75;5066088;28;20048;-62
2023/07/28 03:46:44;;;;;;;2.92;1.50;;;;;;;27.11;45.85;100762.50;5067601;28;20048;-60
2023/07/28 03:49:11;;;;;;;3.58;1.77;;;;;;;27.09;46.09;100759.09;5058164;28;20048;-60
2023/07/28 03:51:39;;;;;;;2.50;1.52;;;;;;;27.07;45.94;100761.16;5071207;28;20061;-60
2023/07/28 03:54:06;;;;;;;2.70;1.38;;;;;;;27.06;46.18;100764.06;5063228;28;20052;-60
2023/07/28 03:56:33;;;;;;;3.20;1.92;;;;;;;27.05;46.01;100763.22;5069635;28;20044;-60
2023/07/28 03:59:01;;;;;;;3.08;1.75;;;;;;;27.05;46.22;100775.94;5069524;28;20518;-60
2023/07/28 04:01:29;;;;;;;2.95;1.33;;;;;;;27.05;46.26;100778.66;5069180;28;20060;-60
2023/07/28 04:03:56;;;;;;;2.80;1.77;;;;;;;27.03;46.12;100784.31;5063098;28;20048;-60
2023/07/28 04:06:41;;;;;;;2.85;1.70;;;;;;;27.03;46.25;100776.16;5070604;28;20064;-61
2023/07/28 04:09:09;;;;;;;3.05;1.65;;;;;;;27.01;46.14;100770.03;5063126;28;20044;-60
2023/07/28 04:11:37;;;;;;;4.50;1.83;;;;;;;27.01;45.99;100764.59;5072452;28;20400;-60
2023/07/28 04:14:05;;;;;;;3.53;1.60;;;;;;;27.00;45.76;100762.09;5062876;28;20059;-60
2023/07/28 04:16:33;;;;;;;3.30;2.03;;;;;;;26.98;45.85;100766.84;5061627;28;20477;-61
2023/07/28 04:19:01;;;;;;;6.50;2.13;;;;;;;26.97;45.91;100771.44;5072156;28;20049;-60
2023/07/28 04:21:28;;;;;;;3.67;1.73;;;;;;;26.97;45.83;100765.16;5062368;28;20045;-60
2023/07/28 04:23:56;;;;;;;2.75;1.60;;;;;;;26.96;46.01;100761.59;5068355;28;20124;-60
2023/07/28 04:26:24;;;;;;;3.00;1.58;;;;;;;26.95;45.97;100759.94;5066378;28;20049;-61
2023/07/28 04:28:58;;;;;;;2.40;1.50;;;;;;;26.95;46.02;100769.94;5068077;28;20072;-60
2023/07/28 04:31:26;;;;;;;2.92;1.40;;;;;;;26.95;45.96;100768.06;5061576;28;20052;-60
2023/07/28 04:33:58;;;;;;;2.97;1.50;;;;;;;26.94;45.87;100762.81;5070472;28;20511;-60
2023/07/28 04:36:37;;;;;;;2.95;1.60;;;;;;;26.94;45.92;100770.94;5062294;28;20288;-61
2023/07/28 04:39:05;;;;;;;2.35;1.27;;;;;;;26.93;45.81;100774.72;5067294;28;20061;-63
2023/07/28 04:41:32;;;;;;;2.65;1.40;;;;;;;26.92;45.89;100776.59;5070137;28;20049;-62
2023/07/28 04:44:00;;;;;;;3.97;1.73;;;;;;;26.91;46.14;100776.78;5064155;28;20060;-63
2023/07/28 04:46:31;;;;;;;2.97;1.57;;;;;;;26.91;46.15;100787.66;5072077;28;20412;-61
2023/07/28 04:49:03;;;;;;;3.13;1.83;;;;;;;26.91;46.21;100790.38;5061151;28;20060;-62
2023/07/28 04:51:49;;;;;;;2.90;1.70;;;;;;;26.89;46.26;100790.53;5073999;28;20068;-63
2023/07/28 04:54:41;;;;;;;4.22;1.77;;;;;;;26.91;46.30;100780.34;5066650;28;20045;-62
2023/07/28 04:57:08;;;;;;;2.92;1.80;;;;;;;26.90;46.43;100778.66;5069810;28;20056;-60
2023/07/28 04:59:38;;;;;;;2.47;1.42;;;;;;;26.91;46.37;100787.66;5069505;28;20500;-60
2023/07/28 05:02:06;;;;;;;3.35;2.08;;;;;;;26.92;46.62;100783.91;5061827;28;20064;-60
2023/07/28 05:04:33;;;;;;;3.72;1.95;;;;;;;26.93;46.49;100785.56;5071283;28;20055;-60
2023/07/28 05:07:01;;;;;;;3.40;1.77;;;;;;;26.93;46.64;100794.56;5058436;28;20049;-60
2023/07/28 05:09:29;;;;;;;4.75;1.50;;;;;;;26.93;46.50;100791.84;5064546;28;20052;-60
2023/07/28 05:11:56;;;;;;;2.65;1.80;;;;;;;26.94;46.53;100809.00;5054264;28;20515;-60
2023/07/28 05:14:25;;;;;;;3.35;1.85;;;;;;;26.94;46.41;100799.00;5060334;28;20057;-60
2023/07/28 05:16:52;;;;;;;4.80;1.75;;;;;;;26.93;46.35;100794.56;5070736;28;20053;-60
2023/07/28 05:19:43;;;;;;;3.10;1.65;;;;;;;26.94;46.22;100787.25;5067555;28;20412;-60
2023/07/28 05:22:31;;;;;;;2.80;1.75;;;;;;;26.94;46.35;100799.00;5062834;28;20061;-60
2023/07/28 05:24:58;;;;;;;2.72;1.70;;;;;;;26.95;46.19;100799.84;5066637;28;20049;-59
2023/07/28 05:27:29;;;;;;;3.70;1.45;;;;;;;26.96;46.28;100796.09;5066682;28;20492;-62
2023/07/28 05:29:56;;;;;;;3.17;1.60;;;;;;;26.96;46.27;100798.81;5066714;28;20049;-63
2023/07/28 05:32:24;;;;;;;4.25;1.63;;;;;;;26.96;46.01;100793.38;5059869;28;20068;-63
2023/07/28 05:35:17;;;;;;;3.85;1.45;;;;;;;26.96;45.86;100796.91;5061480;28;20056;-63
2023/07/28 05:37:45;;;;;;;3.67;1.85;;;;;;;26.96;45.61;100796.91;5069549;28;20049;-62
2023/07/28 05:40:13;;;;;;;3.25;1.73;;;;;;;26.98;45.72;100791.28;5060131;28;20049;-63
2023/07/28 05:42:40;;;;;;;3.40;1.77;;;;;;;26.98;45.56;100797.59;5068503;28;20041;-63
2023/07/28 05:45:08;;;;;;;3.42;1.95;;;;;;;26.99;45.62;100801.16;5065837;28;20530;-63
2023/07/28 05:47:36;;;;;;;3.45;1.92;;;;;;;26.99;45.70;100801.16;5062909;28;20044;-60
2023/07/28 05:50:05;;;;;;;3.75;1.90;;;;;;;26.98;45.63;100811.19;5067242;28;20408;-60
2023/07/28 05:52:32;;;;;;;3.97;2.13;;;;;;;26.97;45.40;100811.34;5067113;28;20408;-60
2023/07/28 05:55:00;;;;;;;4.55;2.28;;;;;;;26.96;45.17;100813.22;5068602;28;20503;-59
2023/07/28 05:57:28;;;;;;;4.75;2.10;;;;;;;26.98;45.22;100810.31;5065843;28;20527;-62
2023/07/28 05:59:56;;;;;;;3.55;1.95;;;;;;;26.97;45.45;100814.91;5059139;28;20052;-63
2023/07/28 06:02:24;;;;;;;4.93;1.92;;;;;;;26.99;45.43;100820.19;5062038;28;20602;-63
2023/07/28 06:04:55;;;;;;;3.42;2.08;;;;;;;26.99;45.38;100818.31;5059249;28;20048;-63
2023/07/28 06:07:22;;;;;;;3.38;1.80;;;;;;;27.00;45.42;100825.41;5068495;28;20114;-62
2023/07/28 06:09:49;;;;;;;2.95;1.73;;;;;;;26.99;45.03;100825.59;5060358;28;20044;-63
2023/07/28 06:12:17;;;;;;;3.08;1.90;;;;;;;27.00;45.12;100840.88;5067741;28;20055;-62
2023/07/28 06:14:44;;;;;;;3.42;1.95;;;;;;;27.00;45.03;100846.31;5061884;28;20049;-63
2023/07/28 06:17:12;;;;;;;3.95;2.25;;;;;;;27.01;45.09;100839.84;5069228;28;20044;-62
2023/07/28 06:19:40;;;;;;;4.53;1.90;;;;;;;27.00;45.21;100835.44;5058666;28;20067;-63
2023/07/28 06:22:07;;;;;;;2.97;2.10;;;;;;;27.01;45.32;100840.69;5061001;28;20412;-63
2023/07/28 06:24:41;;;;;;;3.50;1.73;;;;;;;27.02;45.18;100847.84;5068627;28;20049;-63
2023/07/28 06:27:09;;;;;;;3.88;1.88;;;;;;;27.02;45.53;100850.56;5064207;28;20053;-62
2023/07/28 06:29:40;;;;;;;3.88;2.22;;;;;;;27.03;45.33;100845.94;5056983;28;20500;-63
2023/07/28 06:32:08;;;;;;;4.05;1.98;;;;;;;27.03;45.58;100835.94;5065061;28;20063;-63
2023/07/28 06:34:36;;;;;;;5.07;2.38;;;;;;;27.04;45.75;100829.47;5064738;28;20064;-63
2023/07/28 06:37:03;;;;;;;4.85;2.10;;;;;;;27.04;45.62;100824.03;5058812;28;20523;-60
2023/07/28 06:39:31;;;;;;;3.70;1.80;;;;;;;27.05;45.72;100828.41;5063272;28;20061;-60
2023/07/28 06:41:59;;;;;;;5.72;2.10;;;;;;;27.05;45.65;100828.41;5056969;28;20504;-60
2023/07/28 06:44:27;;;;;;;2.90;1.67;;;;;;;27.07;45.60;100831.81;5063307;28;20053;-60
2023/07/28 06:46:54;;;;;;;3.38;1.70;;;;;;;27.06;45.67;100832.84;5069478;28;20388;-60
2023/07/28 06:49:22;;;;;;;3.88;2.17;;;;;;;27.07;45.74;100837.25;5061015;28;20040;-60
2023/07/28 06:51:49;;;;;;;5.07;2.28;;;;;;;27.07;45.82;100842.69;5059093;28;20049;-60
2023/07/28 06:54:18;;;;;;;4.00;1.83;;;;;;;27.05;45.57;100843.88;5069068;28;20060;-60
2023/07/28 06:56:45;;;;;;;4.45;2.20;;;;;;;27.02;44.97;100850.56;5059616;28;20493;-60
2023/07/28 06:59:12;;;;;;;5.00;2.45;;;;;;;26.98;44.74;100854.66;5068122;28;20401;-59
2023/07/28 07:01:46;;;;;;;3.03;1.85;;;;;;;26.94;44.63;100856.03;5065272;28;20051;-59
2023/07/28 07:04:13;;;;;;;5.15;2.42;;;;;;;26.88;44.35;100865.75;5061999;28;20041;-60
2023/07/28 07:06:41;;;;;;;3.40;1.77;;;;;;;26.84;44.20;100869.00;5068997;28;20040;-60
2023/07/28 07:09:08;;;;;;;2.28;1.48;;;;;;;26.79;44.65;100874.16;5064580;28;20480;-59
2023/07/28 07:11:36;;;;;;;3.75;2.25;;;;;;;26.78;44.40;100880.59;5062872;28;20057;-59
2023/07/28 07:14:04;;;;;;;2.90;1.75;;;;;;;26.74;44.26;100873.81;5067039;28;20044;-59
2023/07/28 07:16:34;;;;;;;3.78;2.05;;;;;;;26.69;44.29;100877.06;5058914;28;20405;-61
2023/07/28 07:19:02;;;;;;;3.92;1.90;;;;;;;26.64;44.24;100882.22;5072178;28;20044;-59
2023/07/28 07:21:29;;;;;;;3.83;1.85;;;;;;;26.60;44.10;100878.16;5068235;28;20048;-60
2023/07/28 07:23:57;;;;;;;2.70;1.40;;;;;;;26.57;43.99;100873.06;5063246;28;20420;-59
2023/07/28 07:26:27;;;;;;;4.90;2.10;;;;;;;26.53;44.15;100863.59;5062998;28;20485;-63
2023/07/28 07:28:54;;;;;;;3.60;1.80;;;;;;;26.51;44.22;100873.81;5068153;28;20044;-60
2023/07/28 07:31:22;;;;;;;4.88;1.92;;;;;;;26.48;44.27;100866.84;5069319;28;20055;-60
2023/07/28 07:33:50;;;;;;;3.83;1.85;;;;;;;26.46;44.45;100866.19;5064375;28;20056;-60
2023/07/28 07:36:19;;;;;;;4.05;2.28;;;;;;;26.46;44.43;100871.63;5061583;28;20049;-59
2023/07/28 07:38:48;;;;;;;4.10;2.03;;;;;;;26.46;44.47;100877.06;5072103;28;20045;-60
2023/07/28 07:41:19;;;;;;;4.75;2.08;;;;;;;26.44;44.75;100872.78;5066968;28;20107;-58
2023/07/28 07:43:48;;;;;;;6.10;1.88;;;;;;;26.43;44.81;100865.69;5071856;28;20064;-58
2023/07/28 07:46:16;;;;;;;3.75;1.95;;;;;;;26.43;44.88;100869.22;5062782;28;20043;-58
2023/07/28 07:48:44;;;;;;;5.82;2.45;;;;;;;26.41;44.92;100870.41;5070074;28;20045;-58
2023/07/28 07:51:12;;;;;;;3.85;2.47;;;;;;;26.41;45.25;100873.13;5066553;28;20151;-58
2023/07/28 07:53:39;;;;;;;5.10;1.88;;;;;;;26.41;45.06;100868.56;5071765;28;20048;-58
2023/07/28 07:56:07;;;;;;;4.90;1.95;;;;;;;26.41;45.09;100871.25;5062644;28;20037;-58
2023/07/28 07:58:35;;;;;;;5.45;2.65;;;;;;;26.43;45.20;100860.25;5068244;28;20045;-60
2023/07/28 08:01:04;;;;;;;5.50;2.00;;;;;;;26.44;45.57;100860.06;5063845;28;20057;-60
2023/07/28 08:03:31;;;;;;;3.85;1.90;;;;;;;26.44;45.48;100859.22;5069489;28;20045;-60
2023/07/28 08:05:59;;;;;;;3.35;1.98;;;;;;;26.44;45.10;100859.22;5070857;28;20500;-60
2023/07/28 08:08:27;;;;;;;5.80;1.77;;;;;;;26.42;45.03;100861.28;5066149;28;20432;-60
2023/07/28 08:10:55;;;;;;;4.43;2.35;;;;;;;26.39;45.08;100871.44;5061567;28;20048;-60
2023/07/28 08:13:23;;;;;;;5.75;2.20;;;;;;;26.37;44.98;100861.78;5071571;28;20477;-60
2023/07/28 08:15:50;;;;;;;5.28;1.90;;;;;;;26.36;45.00;100876.38;5068630;28;20071;-60
2023/07/28 08:18:17;;;;;;;4.78;2.13;;;;;;;26.32;45.22;100881.31;5067113;28;20052;-60
2023/07/28 08:20:45;;;;;;;4.90;1.63;;;;;;;26.29;45.29;100884.41;5074909;28;20067;-60
2023/07/28 08:23:13;;;;;;;4.57;2.38;;;;;;;26.30;45.36;100894.25;5063257;28;20041;-60
2023/07/28 08:25:40;;;;;;;4.53;1.88;;;;;;;26.32;45.51;100891.34;5071119;28;20055;-60
2023/07/28 08:28:08;;;;;;;4.97;1.90;;;;;;;26.34;45.59;100892.03;5066573;28;20052;-60
2023/07/28 08:30:36;;;;;;;2.97;1.90;;;;;;;26.38;45.53;100893.34;5065444;28;20048;-60
2023/07/28 08:33:04;;;;;;;5.82;2.10;;;;;;;26.40;45.46;100896.72;5071503;28;20056;-60
2023/07/28 08:35:31;;;;;;;3.20;1.92;;;;;;;26.39;45.32;100898.59;5064102;28;20056;-59
2023/07/28 08:37:58;;;;;;;4.85;1.77;;;;;;;26.41;45.08;100889.44;5066305;28;20048;-60
2023/07/28 08:40:27;;;;;;;3.40;1.85;;;;;;;26.42;45.08;100900.13;5065058;28;20056;-60
2023/07/28 08:42:55;;;;;;;4.88;2.13;;;;;;;26.45;45.06;100890.78;5071250;28;20059;-60
2023/07/28 08:45:23;;;;;;;4.05;2.03;;;;;;;26.49;45.17;100903.00;5062651;28;20577;-60
2023/07/28 08:47:51;;;;;;;5.28;2.20;;;;;;;26.51;45.10;100904.50;5066715;28;20051;-60
2023/07/28 08:50:19;;;;;;;4.80;1.88;;;;;;;26.50;45.29;100905.53;5073185;28;20408;-60
2023/07/28 08:52:47;;;;;;;3.45;2.20;;;;;;;26.50;45.13;100907.41;5061687;28;20049;-60
2023/07/28 08:55:14;;;;;;;3.22;1.65;;;;;;;26.52;45.33;100903.47;5066181;28;20041;-60
2023/07/28 08:57:41;;;;;;;3.97;2.10;;;;;;;26.52;44.77;100906.19;5066643;28;20048;-60
2023/07/28 09:00:13;;;;;;;6.18;2.15;;;;;;;26.52;44.83;100905.34;5071004;28;20049;-60
2023/07/28 09:02:42;;;;;;;4.43;2.20;;;;;;;26.52;44.44;100903.47;5061376;28;20049;-60
2023/07/28 09:05:20;;;;;;;3.63;2.33;;;;;;;26.53;44.04;100899.75;5069130;28;20060;-60
2023/07/28 09:07:47;;;;;;;2.80;1.80;;;;;;;26.49;43.53;100903.84;5068099;28;20060;-59
2023/07/28 09:10:15;;;;;;;2.53;1.50;;;;;;;26.48;43.19;100899.44;5069451;28;20044;-59
2023/07/28 09:12:48;;;;;;;3.92;1.80;;;;;;;26.46;42.82;100895.22;5060993;28;20048;-59
2023/07/28 09:15:19;;;;;;;3.55;1.50;;;;;;;26.47;42.98;100905.91;5066891;28;20041;-59
2023/07/28 09:17:47;;;;;;;3.28;1.77;;;;;;;26.46;42.81;100901.50;5069110;28;20049;-58
2023/07/28 09:20:16;;;;;;;5.28;1.83;;;;;;;26.43;42.48;100904.53;5065276;28;20060;-58
2023/07/28 09:22:44;;;;;;;4.38;2.03;;;;;;;26.44;42.63;100897.22;5058954;28;20056;-59
2023/07/28 09:25:13;;;;;;;3.15;1.40;;;;;;;26.45;43.11;100901.66;5065447;28;20507;-58
2023/07/28 09:27:48;;;;;;;3.72;1.70;;;;;;;26.45;43.49;100897.06;5063967;28;20037;-59
2023/07/28 09:30:16;;;;;;;4.45;1.73;;;;;;;26.45;43.50;100896.22;5067966;28;20045;-59
2023/07/28 09:32:48;;;;;;;2.70;1.60;;;;;;;26.44;43.19;100900.78;5068378;28;20045;-59
2023/07/28 09:35:17;;;;;;;3.65;1.92;;;;;;;26.42;43.02;100891.13;5067144;28;20044;-59
2023/07/28 09:37:47;;;;;;;4.13;2.22;;;;;;;26.43;43.04;100887.41;5064584;28;20041;-60
2023/07/28 09:40:17;;;;;;;3.47;1.65;;;;;;;26.45;43.60;100888.06;5067208;28;20048;-60
2023/07/28 09:42:49;;;;;;;4.65;2.25;;;;;;;26.46;43.26;100890.63;5064176;28;20048;-60
2023/07/28 09:45:22;;;;;;;2.83;1.70;;;;;;;26.47;43.19;100886.88;5069693;28;20041;-60
2023/07/28 09:48:10;;;;;;;3.47;1.80;;;;;;;26.46;43.07;100879.78;5060243;28;20485;-59
2023/07/28 09:50:40;;;;;;;5.53;2.13;;;;;;;26.48;43.15;100871.44;5066239;28;20048;-58
2023/07/28 09:53:10;;;;;;;3.58;1.85;;;;;;;26.51;43.06;100871.94;5067114;28;20055;-58
2023/07/28 09:55:42;;;;;;;3.40;1.92;;;;;;;26.53;42.95;100879.88;5069905;28;20045;-59
2023/07/28 09:58:16;;;;;;;4.82;2.00;;;;;;;26.53;43.04;100877.16;5061649;28;20059;-58
2023/07/28 10:00:43;;;;;;;4.70;2.05;;;;;;;26.55;43.17;100864.28;5063999;28;20049;-59
2023/07/28 10:03:11;;;;;;;3.97;1.80;;;;;;;26.56;43.32;100872.22;5069255;28;20052;-59
2023/07/28 10:05:40;;;;;;;3.80;2.00;;;;;;;26.62;43.46;100870.69;5063706;28;20044;-58
2023/07/28 10:08:08;;;;;;;4.00;1.85;;;;;;;26.65;43.41;100873.03;5062067;28;20047;-60
2023/07/28 10:10:36;;;;;;;4.85;2.10;;;;;;;26.64;43.46;100868.63;5067644;28;20503;-60
2023/07/28 10:13:04;;;;;;;5.15;1.90;;;;;;;26.67;43.60;100860.13;5062110;28;20040;-59
2023/07/28 10:15:32;;;;;;;3.60;1.83;;;;;;;26.71;43.61;100860.63;5065349;28;20064;-58
2023/07/28 10:18:23;;;;;;;3.70;2.13;;;;;;;26.75;43.21;100860.06;5063213;28;20040;-64
2023/07/28 10:20:53;;;;;;;4.32;2.05;;;;;;;26.78;43.67;100861.56;5067348;28;20060;-64
2023/07/28 10:23:24;;;;;;;3.58;1.92;;;;;;;26.80;43.76;100860.38;5060007;28;20404;-64
2023/07/28 10:25:59;;;;;;;3.97;2.03;;;;;;;26.80;43.62;100862.25;5061272;28;20061;-64
2023/07/28 10:28:31;;;;;;;4.30;1.95;;;;;;;26.82;43.91;100869.19;5066116;28;20048;-65
2023/07/28 10:31:00;;;;;;;2.93;1.63;;;;;;;26.86;43.82;100861.53;5068269;28;20056;-65
2023/07/28 10:33:33;;;;;;;3.92;1.98;;;;;;;26.90;43.56;100856.56;5059551;28;20281;-65
2023/07/28 10:36:14;;;;;;;4.38;2.30;;;;;;;26.94;43.62;100850.63;5064379;28;20061;-65
2023/07/28 10:38:43;;;;;;;3.28;2.17;;;;;;;26.96;43.38;100844.97;5059953;28;20052;-58
2023/07/28 10:41:14;;;;;;;4.03;2.33;;;;;;;26.98;43.65;100843.78;5069290;28;20052;-59
2023/07/28 10:43:43;;;;;;;4.70;2.28;;;;;;;26.99;43.74;100842.75;5062778;28;20507;-59
2023/07/28 10:46:16;;;;;;;4.85;1.98;;;;;;;27.00;43.79;100844.44;5063275;28;20049;-60
2023/07/28 10:48:46;;;;;;;4.53;1.83;;;;;;;27.02;43.93;100845.13;5069229;28;20037;-59
2023/07/28 10:51:21;;;;;;;4.07;2.25;;;;;;;27.03;43.88;100843.25;5060568;28;20524;-58
2023/07/28 10:53:55;;;;;;;2.83;1.83;;;;;;;27.04;44.18;100832.16;5068897;28;20052;-58
2023/07/28 10:56:23;;;;;;;3.65;2.00;;;;;;;27.08;44.37;100829.94;5070130;28;20052;-58
2023/07/28 10:59:01;;;;;;;3.65;2.05;;;;;;;27.10;44.12;100830.63;5059112;28;20100;-58
2023/07/28 11:01:36;;;;;;;4.70;1.80;;;;;;;27.11;43.83;100833.16;5060813;28;20049;-58
2023/07/28 11:04:10;;;;;;;3.08;2.00;;;;;;;27.14;43.86;100837.38;5068332;28;20040;-58
2023/07/28 11:06:39;;;;;;;4.70;2.40;;;;;;;27.15;43.67;100832.81;5067990;28;20075;-65
2023/07/28 11:09:08;;;;;;;5.65;1.80;;;;;;;27.16;43.78;100829.91;5061287;28;20041;-65
2023/07/28 11:11:36;;;;;;;3.38;2.20;;;;;;;27.16;43.89;100835.34;5062753;28;20052;-65
2023/07/28 11:14:05;;;;;;;5.72;2.03;;;;;;;27.18;43.70;100832.41;5068190;28;20049;-65
2023/07/28 11:16:37;;;;;;;5.50;2.55;;;;;;;27.20;43.45;100833.09;5064629;28;20496;-64
2023/07/28 11:19:16;;;;;;;4.95;2.05;;;;;;;27.22;43.03;100840.03;5062238;28;20381;-65
2023/07/28 11:21:43;;;;;;;5.72;1.83;;;;;;;27.23;43.20;100820.00;5062383;28;20055;-65
2023/07/28 11:24:11;;;;;;;3.58;1.98;;;;;;;27.25;43.01;100826.06;5068762;28;20041;-65
2023/07/28 11:26:39;;;;;;;4.28;2.10;;;;;;;27.24;42.96;100821.66;5061221;28;20424;-65
2023/07/28 11:29:09;;;;;;;4.05;2.05;;;;;;;27.25;43.32;100826.06;5064282;28;20047;-65
2023/07/28 11:31:36;;;;;;;3.50;1.90;;;;;;;27.25;43.45;100823.34;5067595;28;20045;-65
2023/07/28 11:34:15;;;;;;;3.50;1.42;;;;;;;27.27;43.33;100826.75;5058739;28;20057;-66